sensor_id;sensor_type;location;lat;lon;timestamp;P1;durP1;ratioP1;P2;durP2;ratioP2
15312;SDS011;7757;52.626;4.746;2023-11-19T00:01:51;17.48;;;2.80;;
15312;SDS011;7757;52.626;4.746;2023-11-19T00:04:16;15.23;;;2.60;;
15312;SDS011;7757;52.626;4.746;2023-11-19T00:06:42;18.15;;;3.08;;
15312;SDS011;7757;52.626;4.746;2023-11-19T00:09:07;17.55;;;2.90;;
15312;SDS011;7757;52.626;4.746;2023-11-19T00:11:33;18.48;;;2.88;;
15312;SDS011;7757;52.626;4.746;2023-11-19T00:13:58;16.75;;;2.60;;
15312;SDS011;7757;52.626;4.746;2023-11-19T00:16:24;14.10;;;2.78;;
15312;SDS011;7757;52.626;4.746;2023-11-19T00:18:49;15.18;;;2.67;;
15312;SDS011;7757;52.626;4.746;2023-11-19T00:21:16;19.35;;;2.83;;
15312;SDS011;7757;52.626;4.746;2023-11-19T00:23:41;14.13;;;2.55;;
15312;SDS011;7757;52.626;4.746;2023-11-19T00:26:06;15.65;;;2.83;;
15312;SDS011;7757;52.626;4.746;2023-11-19T00:28:32;14.05;;;2.42;;
15312;SDS011;7757;52.626;4.746;2023-11-19T00:30:59;14.48;;;2.95;;
15312;SDS011;7757;52.626;4.746;2023-11-19T00:33:25;12.52;;;2.70;;
15312;SDS011;7757;52.626;4.746;2023-11-19T00:35:50;21.00;;;2.65;;
15312;SDS011;7757;52.626;4.746;2023-11-19T00:38:16;14.60;;;3.00;;
15312;SDS011;7757;52.626;4.746;2023-11-19T00:40:41;14.73;;;2.42;;
15312;SDS011;7757;52.626;4.746;2023-11-19T00:43:07;19.48;;;2.47;;
15312;SDS011;7757;52.626;4.746;2023-11-19T00:45:32;15.82;;;3.17;;
15312;SDS011;7757;52.626;4.746;2023-11-19T00:47:58;15.93;;;2.72;;
15312;SDS011;7757;52.626;4.746;2023-11-19T00:50:25;14.00;;;2.50;;
15312;SDS011;7757;52.626;4.746;2023-11-19T00:52:52;13.90;;;2.72;;
15312;SDS011;7757;52.626;4.746;2023-11-19T00:55:17;11.75;;;2.30;;
15312;SDS011;7757;52.626;4.746;2023-11-19T00:57:42;18.80;;;2.90;;
15312;SDS011;7757;52.626;4.746;2023-11-19T01:00:08;14.90;;;2.65;;
15312;SDS011;7757;52.626;4.746;2023-11-19T01:02:43;20.52;;;3.65;;
15312;SDS011;7757;52.626;4.746;2023-11-19T01:05:10;15.05;;;2.58;;
15312;SDS011;7757;52.626;4.746;2023-11-19T01:07:39;12.02;;;2.60;;
15312;SDS011;7757;52.626;4.746;2023-11-19T01:10:05;15.25;;;2.53;;
15312;SDS011;7757;52.626;4.746;2023-11-19T01:12:31;16.00;;;2.85;;
15312;SDS011;7757;52.626;4.746;2023-11-19T01:14:56;16.15;;;2.65;;
15312;SDS011;7757;52.626;4.746;2023-11-19T01:17:23;15.95;;;2.60;;
15312;SDS011;7757;52.626;4.746;2023-11-19T01:19:48;16.65;;;2.50;;
15312;SDS011;7757;52.626;4.746;2023-11-19T01:22:15;18.25;;;2.72;;
15312;SDS011;7757;52.626;4.746;2023-11-19T01:24:40;13.68;;;2.75;;
15312;SDS011;7757;52.626;4.746;2023-11-19T01:27:06;16.02;;;3.05;;
15312;SDS011;7757;52.626;4.746;2023-11-19T01:29:31;9.98;;;2.17;;
15312;SDS011;7757;52.626;4.746;2023-11-19T01:31:56;19.48;;;2.95;;
15312;SDS011;7757;52.626;4.746;2023-11-19T01:34:22;15.10;;;2.50;;
15312;SDS011;7757;52.626;4.746;2023-11-19T01:36:47;14.23;;;2.75;;
15312;SDS011;7757;52.626;4.746;2023-11-19T01:39:13;13.50;;;2.40;;
15312;SDS011;7757;52.626;4.746;2023-11-19T01:41:41;15.30;;;2.70;;
15312;SDS011;7757;52.626;4.746;2023-11-19T01:44:07;15.00;;;2.42;;
15312;SDS011;7757;52.626;4.746;2023-11-19T01:46:32;17.98;;;3.00;;
15312;SDS011;7757;52.626;4.746;2023-11-19T01:48:59;18.25;;;2.83;;
15312;SDS011;7757;52.626;4.746;2023-11-19T01:51:25;15.63;;;2.63;;
15312;SDS011;7757;52.626;4.746;2023-11-19T01:53:52;16.38;;;2.67;;
15312;SDS011;7757;52.626;4.746;2023-11-19T01:56:18;15.32;;;2.38;;
15312;SDS011;7757;52.626;4.746;2023-11-19T01:58:45;13.25;;;2.53;;
15312;SDS011;7757;52.626;4.746;2023-11-19T02:01:11;14.52;;;2.80;;
15312;SDS011;7757;52.626;4.746;2023-11-19T02:03:38;16.85;;;2.30;;
15312;SDS011;7757;52.626;4.746;2023-11-19T02:06:04;15.93;;;2.72;;
15312;SDS011;7757;52.626;4.746;2023-11-19T02:08:30;17.45;;;2.67;;
15312;SDS011;7757;52.626;4.746;2023-11-19T02:10:56;15.05;;;2.53;;
15312;SDS011;7757;52.626;4.746;2023-11-19T02:13:22;14.65;;;2.53;;
15312;SDS011;7757;52.626;4.746;2023-11-19T02:15:47;15.80;;;2.60;;
15312;SDS011;7757;52.626;4.746;2023-11-19T02:20:49;13.38;;;2.30;;
15312;SDS011;7757;52.626;4.746;2023-11-19T02:23:15;16.58;;;2.72;;
15312;SDS011;7757;52.626;4.746;2023-11-19T02:25:42;17.02;;;2.42;;
15312;SDS011;7757;52.626;4.746;2023-11-19T02:28:12;13.23;;;2.10;;
15312;SDS011;7757;52.626;4.746;2023-11-19T02:30:38;18.13;;;3.05;;
15312;SDS011;7757;52.626;4.746;2023-11-19T02:33:03;17.63;;;2.40;;
15312;SDS011;7757;52.626;4.746;2023-11-19T02:35:30;17.40;;;2.72;;
15312;SDS011;7757;52.626;4.746;2023-11-19T02:37:57;21.73;;;2.92;;
15312;SDS011;7757;52.626;4.746;2023-11-19T02:40:28;17.35;;;3.17;;
15312;SDS011;7757;52.626;4.746;2023-11-19T02:42:54;16.08;;;2.90;;
15312;SDS011;7757;52.626;4.746;2023-11-19T02:45:22;17.30;;;2.83;;
15312;SDS011;7757;52.626;4.746;2023-11-19T02:47:48;14.43;;;2.38;;
15312;SDS011;7757;52.626;4.746;2023-11-19T02:50:14;17.17;;;2.97;;
15312;SDS011;7757;52.626;4.746;2023-11-19T02:52:40;17.02;;;2.90;;
15312;SDS011;7757;52.626;4.746;2023-11-19T02:55:06;15.43;;;3.55;;
15312;SDS011;7757;52.626;4.746;2023-11-19T02:57:35;22.70;;;3.45;;
15312;SDS011;7757;52.626;4.746;2023-11-19T03:00:01;17.83;;;2.67;;
15312;SDS011;7757;52.626;4.746;2023-11-19T03:02:41;16.42;;;3.05;;
15312;SDS011;7757;52.626;4.746;2023-11-19T03:05:12;16.50;;;2.65;;
15312;SDS011;7757;52.626;4.746;2023-11-19T03:07:40;18.25;;;2.80;;
15312;SDS011;7757;52.626;4.746;2023-11-19T03:10:09;11.30;;;2.33;;
15312;SDS011;7757;52.626;4.746;2023-11-19T03:12:38;16.23;;;2.70;;
15312;SDS011;7757;52.626;4.746;2023-11-19T03:15:05;13.70;;;2.72;;
15312;SDS011;7757;52.626;4.746;2023-11-19T03:17:30;21.05;;;3.42;;
15312;SDS011;7757;52.626;4.746;2023-11-19T03:19:56;15.40;;;3.10;;
15312;SDS011;7757;52.626;4.746;2023-11-19T03:22:21;17.05;;;3.20;;
15312;SDS011;7757;52.626;4.746;2023-11-19T03:24:47;17.50;;;3.10;;
15312;SDS011;7757;52.626;4.746;2023-11-19T03:27:12;16.13;;;2.97;;
15312;SDS011;7757;52.626;4.746;2023-11-19T03:29:37;16.35;;;2.63;;
15312;SDS011;7757;52.626;4.746;2023-11-19T03:32:03;16.45;;;2.60;;
15312;SDS011;7757;52.626;4.746;2023-11-19T03:34:29;18.42;;;2.70;;
15312;SDS011;7757;52.626;4.746;2023-11-19T03:36:55;28.00;;;3.90;;
15312;SDS011;7757;52.626;4.746;2023-11-19T03:39:22;17.15;;;2.58;;
15312;SDS011;7757;52.626;4.746;2023-11-19T03:41:49;17.35;;;2.80;;
15312;SDS011;7757;52.626;4.746;2023-11-19T03:44:15;18.60;;;3.00;;
15312;SDS011;7757;52.626;4.746;2023-11-19T03:46:40;14.23;;;3.20;;
15312;SDS011;7757;52.626;4.746;2023-11-19T03:49:06;17.10;;;2.80;;
15312;SDS011;7757;52.626;4.746;2023-11-19T03:51:32;16.75;;;3.03;;
15312;SDS011;7757;52.626;4.746;2023-11-19T03:53:57;17.73;;;3.00;;
15312;SDS011;7757;52.626;4.746;2023-11-19T03:56:24;12.80;;;2.80;;
15312;SDS011;7757;52.626;4.746;2023-11-19T03:58:49;14.70;;;2.83;;
15312;SDS011;7757;52.626;4.746;2023-11-19T04:01:14;15.88;;;2.70;;
15312;SDS011;7757;52.626;4.746;2023-11-19T04:03:40;19.35;;;3.28;;
15312;SDS011;7757;52.626;4.746;2023-11-19T04:06:05;14.75;;;2.33;;
15312;SDS011;7757;52.626;4.746;2023-11-19T04:08:31;14.32;;;2.70;;
15312;SDS011;7757;52.626;4.746;2023-11-19T04:10:57;14.40;;;2.50;;
15312;SDS011;7757;52.626;4.746;2023-11-19T04:13:22;17.40;;;2.80;;
15312;SDS011;7757;52.626;4.746;2023-11-19T04:15:49;16.27;;;3.03;;
15312;SDS011;7757;52.626;4.746;2023-11-19T04:18:15;16.23;;;2.53;;
15312;SDS011;7757;52.626;4.746;2023-11-19T04:20:41;17.27;;;3.15;;
15312;SDS011;7757;52.626;4.746;2023-11-19T04:23:07;17.20;;;2.47;;
15312;SDS011;7757;52.626;4.746;2023-11-19T04:25:33;19.08;;;2.90;;
15312;SDS011;7757;52.626;4.746;2023-11-19T04:28:00;17.35;;;3.05;;
15312;SDS011;7757;52.626;4.746;2023-11-19T04:30:25;17.65;;;3.40;;
15312;SDS011;7757;52.626;4.746;2023-11-19T04:32:51;16.50;;;3.17;;
15312;SDS011;7757;52.626;4.746;2023-11-19T04:35:16;15.93;;;3.00;;
15312;SDS011;7757;52.626;4.746;2023-11-19T04:37:42;19.55;;;3.03;;
15312;SDS011;7757;52.626;4.746;2023-11-19T04:40:07;21.67;;;3.05;;
15312;SDS011;7757;52.626;4.746;2023-11-19T04:42:34;19.10;;;3.08;;
15312;SDS011;7757;52.626;4.746;2023-11-19T04:45:00;22.33;;;3.78;;
15312;SDS011;7757;52.626;4.746;2023-11-19T04:47:25;18.80;;;2.90;;
15312;SDS011;7757;52.626;4.746;2023-11-19T04:49:50;15.48;;;2.83;;
15312;SDS011;7757;52.626;4.746;2023-11-19T04:52:16;20.35;;;3.53;;
15312;SDS011;7757;52.626;4.746;2023-11-19T04:54:41;17.63;;;3.53;;
15312;SDS011;7757;52.626;4.746;2023-11-19T04:57:08;18.98;;;3.00;;
15312;SDS011;7757;52.626;4.746;2023-11-19T04:59:37;19.23;;;3.38;;
15312;SDS011;7757;52.626;4.746;2023-11-19T05:02:03;18.52;;;3.38;;
15312;SDS011;7757;52.626;4.746;2023-11-19T05:04:29;23.55;;;3.65;;
15312;SDS011;7757;52.626;4.746;2023-11-19T05:06:54;22.05;;;3.40;;
15312;SDS011;7757;52.626;4.746;2023-11-19T05:09:20;22.13;;;3.28;;
15312;SDS011;7757;52.626;4.746;2023-11-19T05:11:45;18.92;;;3.15;;
15312;SDS011;7757;52.626;4.746;2023-11-19T05:14:11;16.15;;;2.58;;
15312;SDS011;7757;52.626;4.746;2023-11-19T05:16:39;18.80;;;3.42;;
15312;SDS011;7757;52.626;4.746;2023-11-19T05:19:05;20.52;;;3.90;;
15312;SDS011;7757;52.626;4.746;2023-11-19T05:21:30;23.80;;;3.72;;
15312;SDS011;7757;52.626;4.746;2023-11-19T05:23:55;16.42;;;3.33;;
15312;SDS011;7757;52.626;4.746;2023-11-19T05:26:22;21.25;;;3.70;;
15312;SDS011;7757;52.626;4.746;2023-11-19T05:28:49;23.08;;;3.67;;
15312;SDS011;7757;52.626;4.746;2023-11-19T05:31:15;19.98;;;3.50;;
15312;SDS011;7757;52.626;4.746;2023-11-19T05:33:41;16.02;;;3.05;;
15312;SDS011;7757;52.626;4.746;2023-11-19T05:36:07;21.17;;;3.80;;
15312;SDS011;7757;52.626;4.746;2023-11-19T05:38:33;20.85;;;3.67;;
15312;SDS011;7757;52.626;4.746;2023-11-19T05:40:59;20.83;;;3.25;;
15312;SDS011;7757;52.626;4.746;2023-11-19T05:43:25;24.08;;;3.88;;
15312;SDS011;7757;52.626;4.746;2023-11-19T05:45:50;22.23;;;3.15;;
15312;SDS011;7757;52.626;4.746;2023-11-19T05:48:16;27.25;;;3.35;;
15312;SDS011;7757;52.626;4.746;2023-11-19T05:50:42;18.48;;;3.55;;
15312;SDS011;7757;52.626;4.746;2023-11-19T05:53:07;21.70;;;3.17;;
15312;SDS011;7757;52.626;4.746;2023-11-19T05:55:35;20.92;;;3.60;;
15312;SDS011;7757;52.626;4.746;2023-11-19T05:58:10;23.33;;;3.70;;
15312;SDS011;7757;52.626;4.746;2023-11-19T06:00:37;22.02;;;3.33;;
15312;SDS011;7757;52.626;4.746;2023-11-19T06:03:03;22.40;;;3.45;;
15312;SDS011;7757;52.626;4.746;2023-11-19T06:05:32;23.45;;;3.63;;
15312;SDS011;7757;52.626;4.746;2023-11-19T06:07:57;22.83;;;3.55;;
15312;SDS011;7757;52.626;4.746;2023-11-19T06:10:22;22.85;;;3.40;;
15312;SDS011;7757;52.626;4.746;2023-11-19T06:12:55;21.65;;;3.80;;
15312;SDS011;7757;52.626;4.746;2023-11-19T06:15:22;21.33;;;3.63;;
15312;SDS011;7757;52.626;4.746;2023-11-19T06:17:47;20.20;;;3.08;;
15312;SDS011;7757;52.626;4.746;2023-11-19T06:20:12;15.27;;;3.03;;
15312;SDS011;7757;52.626;4.746;2023-11-19T06:22:39;20.65;;;3.10;;
15312;SDS011;7757;52.626;4.746;2023-11-19T06:25:05;21.65;;;3.67;;
15312;SDS011;7757;52.626;4.746;2023-11-19T06:27:32;19.00;;;3.50;;
15312;SDS011;7757;52.626;4.746;2023-11-19T06:29:58;24.33;;;3.20;;
15312;SDS011;7757;52.626;4.746;2023-11-19T06:32:23;25.10;;;3.22;;
15312;SDS011;7757;52.626;4.746;2023-11-19T06:34:49;18.58;;;3.40;;
15312;SDS011;7757;52.626;4.746;2023-11-19T06:37:15;23.67;;;3.22;;
15312;SDS011;7757;52.626;4.746;2023-11-19T06:39:40;22.67;;;3.10;;
15312;SDS011;7757;52.626;4.746;2023-11-19T06:42:06;20.42;;;3.20;;
15312;SDS011;7757;52.626;4.746;2023-11-19T06:44:32;21.08;;;3.42;;
15312;SDS011;7757;52.626;4.746;2023-11-19T06:46:57;20.17;;;3.90;;
15312;SDS011;7757;52.626;4.746;2023-11-19T06:49:23;21.58;;;3.60;;
15312;SDS011;7757;52.626;4.746;2023-11-19T06:51:49;18.13;;;2.97;;
15312;SDS011;7757;52.626;4.746;2023-11-19T06:54:15;19.80;;;3.38;;
15312;SDS011;7757;52.626;4.746;2023-11-19T06:56:41;15.85;;;3.17;;
15312;SDS011;7757;52.626;4.746;2023-11-19T06:59:07;21.98;;;3.40;;
15312;SDS011;7757;52.626;4.746;2023-11-19T07:01:35;20.52;;;3.33;;
15312;SDS011;7757;52.626;4.746;2023-11-19T07:04:02;17.90;;;3.20;;
15312;SDS011;7757;52.626;4.746;2023-11-19T07:06:33;20.75;;;3.25;;
15312;SDS011;7757;52.626;4.746;2023-11-19T07:08:59;24.92;;;4.22;;
15312;SDS011;7757;52.626;4.746;2023-11-19T07:11:27;19.00;;;3.10;;
15312;SDS011;7757;52.626;4.746;2023-11-19T07:13:53;19.77;;;3.08;;
15312;SDS011;7757;52.626;4.746;2023-11-19T07:16:19;18.27;;;3.53;;
15312;SDS011;7757;52.626;4.746;2023-11-19T07:18:46;22.77;;;3.33;;
15312;SDS011;7757;52.626;4.746;2023-11-19T07:21:15;23.90;;;3.67;;
15312;SDS011;7757;52.626;4.746;2023-11-19T07:23:40;20.75;;;3.22;;
15312;SDS011;7757;52.626;4.746;2023-11-19T07:26:06;18.48;;;3.72;;
15312;SDS011;7757;52.626;4.746;2023-11-19T07:28:35;17.65;;;3.13;;
15312;SDS011;7757;52.626;4.746;2023-11-19T07:31:01;16.58;;;2.67;;
15312;SDS011;7757;52.626;4.746;2023-11-19T07:33:27;21.80;;;3.78;;
15312;SDS011;7757;52.626;4.746;2023-11-19T07:35:53;19.90;;;3.63;;
15312;SDS011;7757;52.626;4.746;2023-11-19T07:38:18;18.20;;;3.35;;
15312;SDS011;7757;52.626;4.746;2023-11-19T07:40:43;22.45;;;3.10;;
15312;SDS011;7757;52.626;4.746;2023-11-19T07:43:10;21.23;;;3.58;;
15312;SDS011;7757;52.626;4.746;2023-11-19T07:45:35;22.27;;;2.85;;
15312;SDS011;7757;52.626;4.746;2023-11-19T07:48:01;19.67;;;3.20;;
15312;SDS011;7757;52.626;4.746;2023-11-19T07:50:27;18.48;;;3.03;;
15312;SDS011;7757;52.626;4.746;2023-11-19T07:52:52;16.02;;;3.00;;
15312;SDS011;7757;52.626;4.746;2023-11-19T07:55:19;22.10;;;3.25;;
15312;SDS011;7757;52.626;4.746;2023-11-19T07:57:44;21.08;;;3.80;;
15312;SDS011;7757;52.626;4.746;2023-11-19T08:00:10;20.38;;;3.35;;
15312;SDS011;7757;52.626;4.746;2023-11-19T08:02:39;21.30;;;3.28;;
15312;SDS011;7757;52.626;4.746;2023-11-19T08:05:04;19.67;;;2.88;;
15312;SDS011;7757;52.626;4.746;2023-11-19T08:07:30;19.75;;;3.10;;
15312;SDS011;7757;52.626;4.746;2023-11-19T08:09:56;20.90;;;3.38;;
15312;SDS011;7757;52.626;4.746;2023-11-19T08:12:22;20.55;;;3.55;;
15312;SDS011;7757;52.626;4.746;2023-11-19T08:14:48;19.92;;;3.15;;
15312;SDS011;7757;52.626;4.746;2023-11-19T08:17:14;20.83;;;2.83;;
15312;SDS011;7757;52.626;4.746;2023-11-19T08:19:39;19.75;;;2.80;;
15312;SDS011;7757;52.626;4.746;2023-11-19T08:22:05;20.02;;;3.38;;
15312;SDS011;7757;52.626;4.746;2023-11-19T08:24:30;20.35;;;3.20;;
15312;SDS011;7757;52.626;4.746;2023-11-19T08:26:56;21.85;;;3.65;;
15312;SDS011;7757;52.626;4.746;2023-11-19T08:29:21;20.80;;;2.88;;
15312;SDS011;7757;52.626;4.746;2023-11-19T08:31:46;17.13;;;2.97;;
15312;SDS011;7757;52.626;4.746;2023-11-19T08:34:12;17.02;;;3.17;;
15312;SDS011;7757;52.626;4.746;2023-11-19T08:36:37;20.25;;;3.10;;
15312;SDS011;7757;52.626;4.746;2023-11-19T08:39:03;16.13;;;2.65;;
15312;SDS011;7757;52.626;4.746;2023-11-19T08:41:28;17.65;;;2.90;;
15312;SDS011;7757;52.626;4.746;2023-11-19T08:43:54;18.42;;;2.95;;
15312;SDS011;7757;52.626;4.746;2023-11-19T08:46:19;18.73;;;3.17;;
15312;SDS011;7757;52.626;4.746;2023-11-19T08:48:45;19.70;;;3.70;;
15312;SDS011;7757;52.626;4.746;2023-11-19T08:51:11;18.15;;;2.70;;
15312;SDS011;7757;52.626;4.746;2023-11-19T08:53:37;19.33;;;2.92;;
15312;SDS011;7757;52.626;4.746;2023-11-19T08:56:02;21.00;;;2.80;;
15312;SDS011;7757;52.626;4.746;2023-11-19T08:58:28;20.83;;;2.85;;
15312;SDS011;7757;52.626;4.746;2023-11-19T09:00:54;14.13;;;3.00;;
15312;SDS011;7757;52.626;4.746;2023-11-19T09:03:19;20.23;;;3.05;;
15312;SDS011;7757;52.626;4.746;2023-11-19T09:05:45;19.90;;;3.10;;
15312;SDS011;7757;52.626;4.746;2023-11-19T09:08:11;19.88;;;2.83;;
15312;SDS011;7757;52.626;4.746;2023-11-19T09:10:37;16.58;;;2.83;;
15312;SDS011;7757;52.626;4.746;2023-11-19T09:13:02;21.08;;;3.50;;
15312;SDS011;7757;52.626;4.746;2023-11-19T09:15:29;16.25;;;2.78;;
15312;SDS011;7757;52.626;4.746;2023-11-19T09:17:54;20.05;;;3.30;;
15312;SDS011;7757;52.626;4.746;2023-11-19T09:20:19;17.65;;;2.80;;
15312;SDS011;7757;52.626;4.746;2023-11-19T09:22:45;17.55;;;2.58;;
15312;SDS011;7757;52.626;4.746;2023-11-19T09:25:11;16.35;;;2.70;;
15312;SDS011;7757;52.626;4.746;2023-11-19T09:27:38;16.40;;;2.58;;
15312;SDS011;7757;52.626;4.746;2023-11-19T09:30:04;17.55;;;3.13;;
15312;SDS011;7757;52.626;4.746;2023-11-19T09:32:30;15.77;;;2.40;;
15312;SDS011;7757;52.626;4.746;2023-11-19T09:34:55;13.60;;;2.67;;
15312;SDS011;7757;52.626;4.746;2023-11-19T09:37:21;18.77;;;2.90;;
15312;SDS011;7757;52.626;4.746;2023-11-19T09:39:46;16.38;;;2.95;;
15312;SDS011;7757;52.626;4.746;2023-11-19T09:42:12;16.92;;;3.22;;
15312;SDS011;7757;52.626;4.746;2023-11-19T09:44:37;19.30;;;2.95;;
15312;SDS011;7757;52.626;4.746;2023-11-19T09:47:04;21.23;;;3.17;;
15312;SDS011;7757;52.626;4.746;2023-11-19T09:49:30;19.00;;;3.28;;
15312;SDS011;7757;52.626;4.746;2023-11-19T09:51:56;18.65;;;3.15;;
15312;SDS011;7757;52.626;4.746;2023-11-19T09:54:22;19.65;;;3.10;;
15312;SDS011;7757;52.626;4.746;2023-11-19T09:56:47;24.25;;;3.22;;
15312;SDS011;7757;52.626;4.746;2023-11-19T09:59:13;19.73;;;3.25;;
15312;SDS011;7757;52.626;4.746;2023-11-19T10:01:39;18.92;;;3.15;;
15312;SDS011;7757;52.626;4.746;2023-11-19T10:04:05;20.33;;;3.65;;
15312;SDS011;7757;52.626;4.746;2023-11-19T10:06:32;20.92;;;3.47;;
15312;SDS011;7757;52.626;4.746;2023-11-19T10:08:57;19.42;;;2.97;;
15312;SDS011;7757;52.626;4.746;2023-11-19T10:11:24;25.13;;;3.72;;
15312;SDS011;7757;52.626;4.746;2023-11-19T10:13:50;17.67;;;3.17;;
15312;SDS011;7757;52.626;4.746;2023-11-19T10:16:17;22.17;;;3.42;;
15312;SDS011;7757;52.626;4.746;2023-11-19T10:18:45;24.38;;;3.58;;
15312;SDS011;7757;52.626;4.746;2023-11-19T10:21:12;21.25;;;4.00;;
15312;SDS011;7757;52.626;4.746;2023-11-19T10:26:15;23.92;;;3.42;;
15312;SDS011;7757;52.626;4.746;2023-11-19T10:28:40;19.67;;;2.97;;
15312;SDS011;7757;52.626;4.746;2023-11-19T10:31:09;17.83;;;3.35;;
15312;SDS011;7757;52.626;4.746;2023-11-19T10:33:34;18.17;;;2.72;;
15312;SDS011;7757;52.626;4.746;2023-11-19T10:36:00;19.17;;;4.05;;
15312;SDS011;7757;52.626;4.746;2023-11-19T10:38:25;22.40;;;4.30;;
15312;SDS011;7757;52.626;4.746;2023-11-19T10:40:51;19.15;;;5.13;;
15312;SDS011;7757;52.626;4.746;2023-11-19T10:43:18;24.52;;;6.50;;
15312;SDS011;7757;52.626;4.746;2023-11-19T10:45:44;31.08;;;6.75;;
15312;SDS011;7757;52.626;4.746;2023-11-19T10:48:09;26.13;;;8.40;;
15312;SDS011;7757;52.626;4.746;2023-11-19T10:50:39;26.80;;;8.60;;
15312;SDS011;7757;52.626;4.746;2023-11-19T10:53:06;29.42;;;9.15;;
15312;SDS011;7757;52.626;4.746;2023-11-19T10:55:34;33.75;;;10.50;;
15312;SDS011;7757;52.626;4.746;2023-11-19T10:58:18;35.35;;;10.68;;
15312;SDS011;7757;52.626;4.746;2023-11-19T11:00:45;29.33;;;10.85;;
15312;SDS011;7757;52.626;4.746;2023-11-19T11:03:16;31.23;;;11.10;;
15312;SDS011;7757;52.626;4.746;2023-11-19T11:05:42;31.85;;;11.48;;
15312;SDS011;7757;52.626;4.746;2023-11-19T11:08:08;30.25;;;10.40;;
15312;SDS011;7757;52.626;4.746;2023-11-19T11:10:36;30.70;;;9.98;;
15312;SDS011;7757;52.626;4.746;2023-11-19T11:13:25;30.77;;;10.63;;
15312;SDS011;7757;52.626;4.746;2023-11-19T11:15:55;33.90;;;10.70;;
15312;SDS011;7757;52.626;4.746;2023-11-19T11:18:23;26.13;;;8.65;;
15312;SDS011;7757;52.626;4.746;2023-11-19T11:20:51;29.58;;;8.70;;
15312;SDS011;7757;52.626;4.746;2023-11-19T11:39:47;24.20;;;5.90;;
15312;SDS011;7757;52.626;4.746;2023-11-19T11:45:02;21.58;;;5.93;;
15312;SDS011;7757;52.626;4.746;2023-11-19T11:50:13;19.05;;;4.95;;
15312;SDS011;7757;52.626;4.746;2023-11-19T11:55:26;21.17;;;4.85;;
15312;SDS011;7757;52.626;4.746;2023-11-19T11:57:55;21.33;;;4.75;;
15312;SDS011;7757;52.626;4.746;2023-11-19T12:00:29;17.60;;;4.30;;
15312;SDS011;7757;52.626;4.746;2023-11-19T12:02:57;19.33;;;4.50;;
15312;SDS011;7757;52.626;4.746;2023-11-19T12:05:24;19.42;;;4.00;;
15312;SDS011;7757;52.626;4.746;2023-11-19T12:07:57;18.95;;;4.13;;
15312;SDS011;7757;52.626;4.746;2023-11-19T12:10:26;15.85;;;3.67;;
15312;SDS011;7757;52.626;4.746;2023-11-19T12:12:59;17.52;;;3.70;;
15312;SDS011;7757;52.626;4.746;2023-11-19T12:15:25;17.75;;;4.10;;
15312;SDS011;7757;52.626;4.746;2023-11-19T12:17:53;24.58;;;4.07;;
15312;SDS011;7757;52.626;4.746;2023-11-19T12:20:22;17.67;;;3.78;;
15312;SDS011;7757;52.626;4.746;2023-11-19T12:22:49;24.60;;;3.95;;
15312;SDS011;7757;52.626;4.746;2023-11-19T12:25:16;19.95;;;3.90;;
15312;SDS011;7757;52.626;4.746;2023-11-19T12:27:50;17.15;;;3.65;;
15312;SDS011;7757;52.626;4.746;2023-11-19T12:30:23;20.07;;;3.77;;
15312;SDS011;7757;52.626;4.746;2023-11-19T12:32:49;16.63;;;3.43;;
15312;SDS011;7757;52.626;4.746;2023-11-19T12:35:15;18.10;;;3.28;;
15312;SDS011;7757;52.626;4.746;2023-11-19T12:37:41;18.30;;;3.65;;
15312;SDS011;7757;52.626;4.746;2023-11-19T12:40:11;16.63;;;3.20;;
15312;SDS011;7757;52.626;4.746;2023-11-19T12:42:40;18.25;;;3.80;;
15312;SDS011;7757;52.626;4.746;2023-11-19T12:45:06;14.95;;;3.92;;
15312;SDS011;7757;52.626;4.746;2023-11-19T12:47:33;18.42;;;3.42;;
15312;SDS011;7757;52.626;4.746;2023-11-19T12:49:58;15.52;;;3.20;;
15312;SDS011;7757;52.626;4.746;2023-11-19T12:52:24;21.00;;;3.08;;
15312;SDS011;7757;52.626;4.746;2023-11-19T12:54:50;18.23;;;3.15;;
15312;SDS011;7757;52.626;4.746;2023-11-19T12:57:16;18.63;;;3.22;;
15312;SDS011;7757;52.626;4.746;2023-11-19T12:59:53;16.30;;;3.40;;
15312;SDS011;7757;52.626;4.746;2023-11-19T13:02:20;23.60;;;3.58;;
15312;SDS011;7757;52.626;4.746;2023-11-19T13:04:46;18.92;;;3.55;;
15312;SDS011;7757;52.626;4.746;2023-11-19T13:07:11;19.73;;;3.55;;
15312;SDS011;7757;52.626;4.746;2023-11-19T13:09:37;22.45;;;4.00;;
15312;SDS011;7757;52.626;4.746;2023-11-19T13:12:11;20.40;;;3.65;;
15312;SDS011;7757;52.626;4.746;2023-11-19T13:14:39;24.35;;;3.45;;
15312;SDS011;7757;52.626;4.746;2023-11-19T13:17:07;17.48;;;3.10;;
15312;SDS011;7757;52.626;4.746;2023-11-19T13:19:33;15.85;;;2.63;;
15312;SDS011;7757;52.626;4.746;2023-11-19T13:21:59;16.00;;;3.20;;
15312;SDS011;7757;52.626;4.746;2023-11-19T13:24:24;21.63;;;3.20;;
15312;SDS011;7757;52.626;4.746;2023-11-19T13:26:49;18.83;;;3.45;;
15312;SDS011;7757;52.626;4.746;2023-11-19T13:29:15;21.92;;;3.90;;
15312;SDS011;7757;52.626;4.746;2023-11-19T13:31:40;18.55;;;3.38;;
15312;SDS011;7757;52.626;4.746;2023-11-19T13:34:05;16.95;;;2.90;;
15312;SDS011;7757;52.626;4.746;2023-11-19T13:36:32;16.73;;;2.53;;
15312;SDS011;7757;52.626;4.746;2023-11-19T13:38:58;15.93;;;2.55;;
15312;SDS011;7757;52.626;4.746;2023-11-19T13:41:24;19.63;;;2.70;;
15312;SDS011;7757;52.626;4.746;2023-11-19T13:43:50;16.80;;;2.90;;
15312;SDS011;7757;52.626;4.746;2023-11-19T13:46:17;18.33;;;3.05;;
15312;SDS011;7757;52.626;4.746;2023-11-19T13:48:42;17.08;;;3.00;;
15312;SDS011;7757;52.626;4.746;2023-11-19T13:51:07;22.73;;;3.05;;
15312;SDS011;7757;52.626;4.746;2023-11-19T13:53:34;17.00;;;2.90;;
15312;SDS011;7757;52.626;4.746;2023-11-19T13:56:00;18.38;;;3.00;;
15312;SDS011;7757;52.626;4.746;2023-11-19T13:58:25;16.13;;;3.00;;
15312;SDS011;7757;52.626;4.746;2023-11-19T14:00:51;14.05;;;2.50;;
15312;SDS011;7757;52.626;4.746;2023-11-19T14:03:16;16.30;;;2.70;;
15312;SDS011;7757;52.626;4.746;2023-11-19T14:05:41;17.00;;;2.97;;
15312;SDS011;7757;52.626;4.746;2023-11-19T14:08:07;18.38;;;2.72;;
15312;SDS011;7757;52.626;4.746;2023-11-19T14:10:39;15.63;;;2.90;;
15312;SDS011;7757;52.626;4.746;2023-11-19T14:13:07;19.20;;;3.53;;
15312;SDS011;7757;52.626;4.746;2023-11-19T14:15:33;19.70;;;3.13;;
15312;SDS011;7757;52.626;4.746;2023-11-19T14:17:58;15.57;;;2.70;;
15312;SDS011;7757;52.626;4.746;2023-11-19T14:20:24;23.27;;;3.10;;
15312;SDS011;7757;52.626;4.746;2023-11-19T14:22:50;18.20;;;2.72;;
15312;SDS011;7757;52.626;4.746;2023-11-19T14:25:17;17.38;;;2.75;;
15312;SDS011;7757;52.626;4.746;2023-11-19T14:27:43;16.73;;;3.00;;
15312;SDS011;7757;52.626;4.746;2023-11-19T14:30:11;16.58;;;3.17;;
15312;SDS011;7757;52.626;4.746;2023-11-19T14:32:38;17.33;;;2.50;;
15312;SDS011;7757;52.626;4.746;2023-11-19T14:35:05;16.30;;;2.53;;
15312;SDS011;7757;52.626;4.746;2023-11-19T14:37:32;15.60;;;2.47;;
15312;SDS011;7757;52.626;4.746;2023-11-19T14:39:58;17.45;;;2.75;;
15312;SDS011;7757;52.626;4.746;2023-11-19T14:42:24;23.77;;;3.35;;
15312;SDS011;7757;52.626;4.746;2023-11-19T14:44:52;22.38;;;3.33;;
15312;SDS011;7757;52.626;4.746;2023-11-19T14:47:18;30.05;;;3.90;;
15312;SDS011;7757;52.626;4.746;2023-11-19T14:49:44;26.50;;;4.15;;
15312;SDS011;7757;52.626;4.746;2023-11-19T14:52:09;21.27;;;3.22;;
15312;SDS011;7757;52.626;4.746;2023-11-19T14:54:36;24.02;;;3.40;;
15312;SDS011;7757;52.626;4.746;2023-11-19T14:57:01;21.55;;;2.97;;
15312;SDS011;7757;52.626;4.746;2023-11-19T14:59:28;17.08;;;2.78;;
15312;SDS011;7757;52.626;4.746;2023-11-19T15:01:54;22.77;;;3.17;;
15312;SDS011;7757;52.626;4.746;2023-11-19T15:04:19;17.20;;;2.50;;
15312;SDS011;7757;52.626;4.746;2023-11-19T15:06:44;23.42;;;3.65;;
15312;SDS011;7757;52.626;4.746;2023-11-19T15:09:10;19.38;;;3.20;;
15312;SDS011;7757;52.626;4.746;2023-11-19T15:11:41;26.83;;;4.75;;
15312;SDS011;7757;52.626;4.746;2023-11-19T15:14:07;23.27;;;3.35;;